sensor_id;sensor_type;location;lat;lon;timestamp;pressure;altitude;pressure_sealevel;temperature;humidity
54882;BME280;40775;51.448;4.742;2023-04-16T00:00:25;102162.19;;;10.33;100.00
54882;BME280;40775;51.448;4.742;2023-04-16T00:02:52;102165.75;;;10.14;100.00
54882;BME280;40775;51.448;4.742;2023-04-16T00:05:19;102167.38;;;10.32;100.00
54882;BME280;40775;51.448;4.742;2023-04-16T00:07:46;102162.97;;;10.31;100.00
54882;BME280;40775;51.448;4.742;2023-04-16T00:10:13;102159.25;;;10.26;100.00
54882;BME280;40775;51.448;4.742;2023-04-16T00:12:40;102161.28;;;10.13;100.00
54882;BME280;40775;51.448;4.742;2023-04-16T00:15:08;102161.69;;;10.21;100.00
54882;BME280;40775;51.448;4.742;2023-04-16T00:17:35;102163.66;;;10.27;100.00
54882;BME280;40775;51.448;4.742;2023-04-16T00:20:02;102163.59;;;10.25;100.00
54882;BME280;40775;51.448;4.742;2023-04-16T00:22:30;102164.50;;;10.26;100.00
54882;BME280;40775;51.448;4.742;2023-04-16T00:24:56;102164.38;;;10.23;100.00
54882;BME280;40775;51.448;4.742;2023-04-16T00:27:23;102167.25;;;10.29;100.00
54882;BME280;40775;51.448;4.742;2023-04-16T00:29:50;102163.25;;;10.17;100.00
54882;BME280;40775;51.448;4.742;2023-04-16T00:32:18;102157.47;;;10.25;100.00
54882;BME280;40775;51.448;4.742;2023-04-16T00:34:44;102158.41;;;10.27;100.00
54882;BME280;40775;51.448;4.742;2023-04-16T00:37:11;102162.97;;;10.31;100.00
54882;BME280;40775;51.448;4.742;2023-04-16T00:39:38;102163.97;;;10.34;100.00
54882;BME280;40775;51.448;4.742;2023-04-16T00:42:06;102165.00;;;10.38;100.00
54882;BME280;40775;51.448;4.742;2023-04-16T00:44:33;102159.25;;;10.26;100.00
54882;BME280;40775;51.448;4.742;2023-04-16T00:47:03;102158.47;;;10.28;100.00
54882;BME280;40775;51.448;4.742;2023-04-16T00:49:30;102151.25;;;10.23;100.00
54882;BME280;40775;51.448;4.742;2023-04-16T00:51:57;102161.16;;;10.30;100.00
54882;BME280;40775;51.448;4.742;2023-04-16T00:54:25;102161.88;;;10.26;100.00
54882;BME280;40775;51.448;4.742;2023-04-16T00:56:52;102164.63;;;10.29;100.00
54882;BME280;40775;51.448;4.742;2023-04-16T00:59:19;102161.81;;;10.24;100.00
54882;BME280;40775;51.448;4.742;2023-04-16T01:01:47;102172.38;;;10.26;100.00
54882;BME280;40775;51.448;4.742;2023-04-16T01:04:14;102175.59;;;10.20;100.00
54882;BME280;40775;51.448;4.742;2023-04-16T01:06:41;102169.09;;;10.12;100.00
54882;BME280;40775;51.448;4.742;2023-04-16T01:09:09;102175.69;;;10.21;100.00
54882;BME280;40775;51.448;4.742;2023-04-16T01:11:39;102174.94;;;10.24;100.00
54882;BME280;40775;51.448;4.742;2023-04-16T01:14:06;102173.47;;;10.11;100.00
54882;BME280;40775;51.448;4.742;2023-04-16T01:16:33;102174.72;;;10.19;100.00
54882;BME280;40775;51.448;4.742;2023-04-16T01:19:00;102172.09;;;10.19;100.00
54882;BME280;40775;51.448;4.742;2023-04-16T01:21:28;102172.25;;;10.23;100.00
54882;BME280;40775;51.448;4.742;2023-04-16T01:23:55;102177.44;;;10.21;100.00
54882;BME280;40775;51.448;4.742;2023-04-16T01:26:22;102189.13;;;10.10;100.00
54882;BME280;40775;51.448;4.742;2023-04-16T01:28:49;102185.00;;;10.15;100.00
54882;BME280;40775;51.448;4.742;2023-04-16T01:31:16;102191.75;;;10.10;100.00
54882;BME280;40775;51.448;4.742;2023-04-16T01:33:44;102182.44;;;10.16;100.00
54882;BME280;40775;51.448;4.742;2023-04-16T01:36:11;102189.13;;;10.10;100.00
54882;BME280;40775;51.448;4.742;2023-04-16T01:38:38;102180.69;;;9.96;100.00
54882;BME280;40775;51.448;4.742;2023-04-16T01:41:05;102188.25;;;10.09;100.00
54882;BME280;40775;51.448;4.742;2023-04-16T01:43:32;102184.72;;;10.09;100.00
54882;BME280;40775;51.448;4.742;2023-04-16T01:46:17;102189.00;;;10.07;100.00
54882;BME280;40775;51.448;4.742;2023-04-16T01:48:46;102193.50;;;10.09;100.00
54882;BME280;40775;51.448;4.742;2023-04-16T01:51:13;102189.06;;;10.08;100.00
54882;BME280;40775;51.448;4.742;2023-04-16T01:53:40;102191.81;;;10.11;100.00
54882;BME280;40775;51.448;4.742;2023-04-16T01:56:07;102191.81;;;10.11;100.00
54882;BME280;40775;51.448;4.742;2023-04-16T01:58:34;102199.56;;;10.08;100.00
54882;BME280;40775;51.448;4.742;2023-04-16T02:01:02;102195.00;;;10.04;100.00
54882;BME280;40775;51.448;4.742;2023-04-16T02:03:30;102196.81;;;10.05;100.00
54882;BME280;40775;51.448;4.742;2023-04-16T02:05:57;102205.25;;;9.98;100.00
54882;BME280;40775;51.448;4.742;2023-04-16T02:08:25;102203.19;;;9.91;100.00
54882;BME280;40775;51.448;4.742;2023-04-16T02:10:52;102203.84;;;10.06;100.00
54882;BME280;40775;51.448;4.742;2023-04-16T02:13:19;102212.16;;;9.96;100.00
54882;BME280;40775;51.448;4.742;2023-04-16T02:15:47;102213.88;;;9.76;100.00
54882;BME280;40775;51.448;4.742;2023-04-16T02:18:15;102208.97;;;10.03;100.00
54882;BME280;40775;51.448;4.742;2023-04-16T02:20:44;102204.16;;;9.93;100.00
54882;BME280;40775;51.448;4.742;2023-04-16T02:23:12;102202.81;;;10.03;100.00
54882;BME280;40775;51.448;4.742;2023-04-16T02:25:45;102208.97;;;10.03;100.00
54882;BME280;40775;51.448;4.742;2023-04-16T02:28:15;102200.13;;;9.82;100.00
54882;BME280;40775;51.448;4.742;2023-04-16T02:30:42;102212.22;;;9.98;100.00
54882;BME280;40775;51.448;4.742;2023-04-16T02:33:11;102209.94;;;9.86;100.00
54882;BME280;40775;51.448;4.742;2023-04-16T02:35:39;102213.91;;;9.58;100.00
54882;BME280;40775;51.448;4.742;2023-04-16T02:38:07;102215.19;;;10.05;100.00
54882;BME280;40775;51.448;4.742;2023-04-16T02:40:34;102215.47;;;9.92;100.00
54882;BME280;40775;51.448;4.742;2023-04-16T02:43:02;102215.69;;;9.97;100.00
54882;BME280;40775;51.448;4.742;2023-04-16T02:45:29;102218.03;;;9.90;100.00
54882;BME280;40775;51.448;4.742;2023-04-16T02:47:57;102216.09;;;9.86;100.00
54882;BME280;40775;51.448;4.742;2023-04-16T02:50:25;102215.69;;;9.97;100.00
54882;BME280;40775;51.448;4.742;2023-04-16T02:52:52;102216.16;;;9.88;100.00
54882;BME280;40775;51.448;4.742;2023-04-16T02:55:19;102222.03;;;9.63;100.00
54882;BME280;40775;51.448;4.742;2023-04-16T02:57:46;102224.03;;;9.88;100.00
54882;BME280;40775;51.448;4.742;2023-04-16T03:00:14;102223.81;;;9.83;100.00
54882;BME280;40775;51.448;4.742;2023-04-16T03:02:41;102223.41;;;9.74;100.00
54882;BME280;40775;51.448;4.742;2023-04-16T03:05:08;102211.13;;;9.93;100.00
54882;BME280;40775;51.448;4.742;2023-04-16T03:07:36;102224.63;;;9.82;100.00
54882;BME280;40775;51.448;4.742;2023-04-16T03:10:06;102224.25;;;9.93;100.00
54882;BME280;40775;51.448;4.742;2023-04-16T03:12:33;102222.38;;;9.90;100.00
54882;BME280;40775;51.448;4.742;2023-04-16T03:15:01;102227.69;;;9.91;100.00
54882;BME280;40775;51.448;4.742;2023-04-16T03:17:28;102230.38;;;9.93;100.00
54882;BME280;40775;51.448;4.742;2023-04-16T03:19:55;102232.56;;;9.84;100.00
54882;BME280;40775;51.448;4.742;2023-04-16T03:22:22;102221.75;;;9.96;100.00
54882;BME280;40775;51.448;4.742;2023-04-16T03:24:49;102229.41;;;9.91;100.00
54882;BME280;40775;51.448;4.742;2023-04-16T03:27:16;102229.81;;;9.81;100.00
54882;BME280;40775;51.448;4.742;2023-04-16T03:29:43;102234.03;;;9.97;100.00
54882;BME280;40775;51.448;4.742;2023-04-16T03:32:11;102230.19;;;9.88;100.00
54882;BME280;40775;51.448;4.742;2023-04-16T03:34:38;102235.53;;;9.72;100.00
54882;BME280;40775;51.448;4.742;2023-04-16T03:37:05;102233.41;;;9.83;100.00
54882;BME280;40775;51.448;4.742;2023-04-16T03:39:32;102233.06;;;9.95;100.00
54882;BME280;40775;51.448;4.742;2023-04-16T03:42:00;102232.63;;;9.85;100.00
54882;BME280;40775;51.448;4.742;2023-04-16T03:44:28;102236.09;;;9.84;100.00
54882;BME280;40775;51.448;4.742;2023-04-16T03:46:55;102228.97;;;9.82;100.00
54882;BME280;40775;51.448;4.742;2023-04-16T03:49:23;102232.88;;;9.90;100.00
54882;BME280;40775;51.448;4.742;2023-04-16T03:51:50;102234.72;;;9.73;100.00
54882;BME280;40775;51.448;4.742;2023-04-16T03:54:17;102238.44;;;9.78;100.00
54882;BME280;40775;51.448;4.742;2023-04-16T03:56:47;102232.16;;;9.75;100.00
54882;BME280;40775;51.448;4.742;2023-04-16T03:59:14;102237.13;;;9.69;100.00
54882;BME280;40775;51.448;4.742;2023-04-16T04:01:41;102235.13;;;9.63;100.00
54882;BME280;40775;51.448;4.742;2023-04-16T04:04:09;102240.84;;;9.74;100.00
54882;BME280;40775;51.448;4.742;2023-04-16T04:06:36;102247.03;;;9.56;100.00
54882;BME280;40775;51.448;4.742;2023-04-16T04:09:04;102237.16;;;9.88;100.00
54882;BME280;40775;51.448;4.742;2023-04-16T04:11:31;102237.81;;;9.84;100.00
54882;BME280;40775;51.448;4.742;2023-04-16T04:13:58;102236.09;;;9.84;100.00
54882;BME280;40775;51.448;4.742;2023-04-16T04:16:25;102232.78;;;9.69;100.00
54882;BME280;40775;51.448;4.742;2023-04-16T04:18:52;102235.75;;;9.77;100.00
54882;BME280;40775;51.448;4.742;2023-04-16T04:21:21;102236.16;;;9.67;100.00
54882;BME280;40775;51.448;4.742;2023-04-16T04:23:48;102238.78;;;9.67;100.00
54882;BME280;40775;51.448;4.742;2023-04-16T04:26:15;102237.88;;;9.66;100.00
54882;BME280;40775;51.448;4.742;2023-04-16T04:28:42;102242.50;;;9.72;100.00
54882;BME280;40775;51.448;4.742;2023-04-16T04:31:09;102239.19;;;9.76;100.00
54882;BME280;40775;51.448;4.742;2023-04-16T04:33:36;102251.97;;;9.68;100.00
54882;BME280;40775;51.448;4.742;2023-04-16T04:36:03;102246.66;;;9.86;100.00
54882;BME280;40775;51.448;4.742;2023-04-16T04:38:30;102242.78;;;9.78;100.00
54882;BME280;40775;51.448;4.742;2023-04-16T04:40:58;102246.88;;;9.71;100.00
54882;BME280;40775;51.448;4.742;2023-04-16T04:43:25;102249.97;;;9.63;100.00
54882;BME280;40775;51.448;4.742;2023-04-16T04:45:52;102249.81;;;9.79;100.00
54882;BME280;40775;51.448;4.742;2023-04-16T04:48:19;102249.13;;;9.83;100.00
54882;BME280;40775;51.448;4.742;2023-04-16T04:50:51;102247.22;;;9.79;100.00
54882;BME280;40775;51.448;4.742;2023-04-16T04:53:19;102252.09;;;9.71;100.00
54882;BME280;40775;51.448;4.742;2023-04-16T04:55:46;102258.34;;;9.55;100.00
54882;BME280;40775;51.448;4.742;2023-04-16T04:58:19;102257.09;;;9.47;100.00
54882;BME280;40775;51.448;4.742;2023-04-16T05:00:46;102262.56;;;9.52;100.00
54882;BME280;40775;51.448;4.742;2023-04-16T05:03:19;102265.44;;;9.76;100.00
54882;BME280;40775;51.448;4.742;2023-04-16T05:05:47;102259.16;;;9.72;100.00
54882;BME280;40775;51.448;4.742;2023-04-16T05:08:14;102262.69;;;9.55;100.00
54882;BME280;40775;51.448;4.742;2023-04-16T05:10:41;102253.56;;;9.47;100.00
54882;BME280;40775;51.448;4.742;2023-04-16T05:13:08;102262.53;;;9.70;100.00
54882;BME280;40775;51.448;4.742;2023-04-16T05:15:35;102259.41;;;9.59;100.00
54882;BME280;40775;51.448;4.742;2023-04-16T05:18:02;102271.78;;;9.62;100.00
54882;BME280;40775;51.448;4.742;2023-04-16T05:20:30;102267.00;;;9.72;100.00
54882;BME280;40775;51.448;4.742;2023-04-16T05:22:57;102270.59;;;9.74;100.00
54882;BME280;40775;51.448;4.742;2023-04-16T05:25:24;102266.59;;;9.82;100.00
54882;BME280;40775;51.448;4.742;2023-04-16T05:27:52;102268.19;;;9.59;100.00
54882;BME280;40775;51.448;4.742;2023-04-16T05:30:19;102277.78;;;9.41;100.00
54882;BME280;40775;51.448;4.742;2023-04-16T05:32:46;102279.16;;;9.70;100.00
54882;BME280;40775;51.448;4.742;2023-04-16T05:35:13;102281.09;;;9.74;100.00
54882;BME280;40775;51.448;4.742;2023-04-16T05:37:43;102282.31;;;9.63;100.00
54882;BME280;40775;51.448;4.742;2023-04-16T05:40:12;102284.34;;;9.69;100.00
54882;BME280;40775;51.448;4.742;2023-04-16T05:42:39;102282.88;;;9.75;100.00
54882;BME280;40775;51.448;4.742;2023-04-16T05:45:07;102285.84;;;9.64;100.00
54882;BME280;40775;51.448;4.742;2023-04-16T05:47:34;102287.38;;;9.78;100.00
54882;BME280;40775;51.448;4.742;2023-04-16T05:50:01;102287.91;;;9.71;100.00
54882;BME280;40775;51.448;4.742;2023-04-16T05:52:28;102282.13;;;9.78;100.00
54882;BME280;40775;51.448;4.742;2023-04-16T05:54:55;102282.25;;;9.62;100.00
54882;BME280;40775;51.448;4.742;2023-04-16T05:57:22;102283.50;;;9.70;100.00
54882;BME280;40775;51.448;4.742;2023-04-16T05:59:49;102293.84;;;9.67;100.00
54882;BME280;40775;51.448;4.742;2023-04-16T06:02:16;102293.78;;;9.84;100.00
54882;BME280;40775;51.448;4.742;2023-04-16T06:04:43;102286.41;;;9.76;100.00
54882;BME280;40775;51.448;4.742;2023-04-16T06:07:10;102297.09;;;9.80;100.00
54882;BME280;40775;51.448;4.742;2023-04-16T06:09:37;102301.72;;;9.67;100.00
54882;BME280;40775;51.448;4.742;2023-04-16T06:12:04;102297.59;;;9.72;100.00
54882;BME280;40775;51.448;4.742;2023-04-16T06:14:31;102299.53;;;9.76;100.00
54882;BME280;40775;51.448;4.742;2023-04-16T06:16:58;102301.59;;;9.83;100.00
54882;BME280;40775;51.448;4.742;2023-04-16T06:19:25;102304.34;;;9.86;100.00
54882;BME280;40775;51.448;4.742;2023-04-16T06:21:53;102300.75;;;9.84;100.00
54882;BME280;40775;51.448;4.742;2023-04-16T06:24:20;102301.91;;;9.89;100.00
54882;BME280;40775;51.448;4.742;2023-04-16T06:26:47;102306.19;;;9.87;100.00
54882;BME280;40775;51.448;4.742;2023-04-16T06:29:14;102304.16;;;9.81;100.00
54882;BME280;40775;51.448;4.742;2023-04-16T06:31:41;102311.56;;;9.90;100.00
54882;BME280;40775;51.448;4.742;2023-04-16T06:34:08;102305.88;;;9.81;100.00
54882;BME280;40775;51.448;4.742;2023-04-16T06:36:36;102307.53;;;9.79;100.00
54882;BME280;40775;51.448;4.742;2023-04-16T06:39:03;102318.47;;;9.88;100.00
54882;BME280;40775;51.448;4.742;2023-04-16T06:41:30;102319.13;;;9.84;100.00
54882;BME280;40775;51.448;4.742;2023-04-16T06:43:57;102312.59;;;9.94;100.00
54882;BME280;40775;51.448;4.742;2023-04-16T06:46:24;102324.22;;;9.81;100.00
54882;BME280;40775;51.448;4.742;2023-04-16T06:48:51;102326.50;;;9.73;100.00
54882;BME280;40775;51.448;4.742;2023-04-16T06:51:18;102322.00;;;9.88;100.00
54882;BME280;40775;51.448;4.742;2023-04-16T06:53:46;102337.06;;;9.75;100.00
54882;BME280;40775;51.448;4.742;2023-04-16T06:56:14;102339.00;;;9.79;100.00
54882;BME280;40775;51.448;4.742;2023-04-16T06:58:41;102346.59;;;9.73;100.00
54882;BME280;40775;51.448;4.742;2023-04-16T07:01:08;102343.69;;;10.04;100.00
54882;BME280;40775;51.448;4.742;2023-04-16T07:03:36;102341.94;;;10.04;100.00
54882;BME280;40775;51.448;4.742;2023-04-16T07:06:03;102344.09;;;9.94;100.00
54882;BME280;40775;51.448;4.742;2023-04-16T07:08:30;102346.03;;;9.98;100.00
54882;BME280;40775;51.448;4.742;2023-04-16T07:10:57;102342.09;;;9.88;100.00
54882;BME280;40775;51.448;4.742;2023-04-16T07:13:25;102347.53;;;10.12;100.00
54882;BME280;40775;51.448;4.742;2023-04-16T07:15:54;102338.22;;;9.99;100.00
54882;BME280;40775;51.448;4.742;2023-04-16T07:18:21;102348.66;;;9.98;100.00
54882;BME280;40775;51.448;4.742;2023-04-16T07:20:48;102350.50;;;10.00;100.00
54882;BME280;40775;51.448;4.742;2023-04-16T07:23:15;102351.75;;;9.89;100.00
54882;BME280;40775;51.448;4.742;2023-04-16T07:25:43;102353.97;;;9.99;100.00
54882;BME280;40775;51.448;4.742;2023-04-16T07:28:10;102354.09;;;10.02;100.00
54882;BME280;40775;51.448;4.742;2023-04-16T07:30:37;102356.38;;;9.95;100.00
54882;BME280;40775;51.448;4.742;2023-04-16T07:33:04;102352.59;;;10.07;100.00
54882;BME280;40775;51.448;4.742;2023-04-16T07:35:32;102359.13;;;9.98;100.00
54882;BME280;40775;51.448;4.742;2023-04-16T07:37:59;102361.97;;;10.02;100.00
54882;BME280;40775;51.448;4.742;2023-04-16T07:40:26;102358.25;;;9.97;100.00
54882;BME280;40775;51.448;4.742;2023-04-16T07:42:54;102364.53;;;10.01;100.00
54882;BME280;40775;51.448;4.742;2023-04-16T07:45:22;102358.72;;;10.08;100.00
54882;BME280;40775;51.448;4.742;2023-04-16T07:47:49;102362.03;;;10.04;100.00
54882;BME280;40775;51.448;4.742;2023-04-16T07:50:16;102373.16;;;9.98;100.00
54882;BME280;40775;51.448;4.742;2023-04-16T07:52:46;102371.50;;;10.00;100.00
54882;BME280;40775;51.448;4.742;2023-04-16T07:55:13;102375.22;;;10.05;100.00
54882;BME280;40775;51.448;4.742;2023-04-16T07:57:42;102376.28;;;10.09;100.00
54882;BME280;40775;51.448;4.742;2023-04-16T08:00:10;102381.88;;;9.79;100.00
54882;BME280;40775;51.448;4.742;2023-04-16T08:02:37;102378.44;;;10.17;100.00
54882;BME280;40775;51.448;4.742;2023-04-16T08:05:05;102381.91;;;10.16;100.00
54882;BME280;40775;51.448;4.742;2023-04-16T08:07:32;102383.75;;;10.19;100.00
54882;BME280;40775;51.448;4.742;2023-04-16T08:10:00;102388.94;;;10.17;100.00
54882;BME280;40775;51.448;4.742;2023-04-16T08:12:28;102398.69;;;10.20;100.00
54882;BME280;40775;51.448;4.742;2023-04-16T08:14:55;102400.66;;;10.06;100.00
54882;BME280;40775;51.448;4.742;2023-04-16T08:17:22;102399.38;;;10.16;100.00
54882;BME280;40775;51.448;4.742;2023-04-16T08:19:49;102405.34;;;10.31;100.00
54882;BME280;40775;51.448;4.742;2023-04-16T08:22:17;102410.19;;;10.22;100.00
54882;BME280;40775;51.448;4.742;2023-04-16T08:24:44;102414.69;;;10.25;100.00
54882;BME280;40775;51.448;4.742;2023-04-16T08:27:11;102405.28;;;10.30;100.00
54882;BME280;40775;51.448;4.742;2023-04-16T08:29:45;102414.53;;;10.21;100.00
54882;BME280;40775;51.448;4.742;2023-04-16T08:32:12;102416.78;;;10.14;100.00
54882;BME280;40775;51.448;4.742;2023-04-16T08:34:41;102404.94;;;10.22;100.00
54882;BME280;40775;51.448;4.742;2023-04-16T08:37:08;102405.97;;;10.26;100.00
54882;BME280;40775;51.448;4.742;2023-04-16T08:39:35;102417.22;;;10.23;100.00
54882;BME280;40775;51.448;4.742;2023-04-16T08:42:04;102417.66;;;10.14;100.00
54882;BME280;40775;51.448;4.742;2023-04-16T08:44:37;102411.09;;;10.23;100.00
54882;BME280;40775;51.448;4.742;2023-04-16T08:47:11;102417.75;;;10.16;100.00
54882;BME280;40775;51.448;4.742;2023-04-16T08:49:43;102427.25;;;10.32;100.00
54882;BME280;40775;51.448;4.742;2023-04-16T08:52:17;102428.06;;;10.31;100.00
54882;BME280;40775;51.448;4.742;2023-04-16T08:55:05;102424.63;;;10.32;100.00
54882;BME280;40775;51.448;4.742;2023-04-16T08:57:58;102429.19;;;10.36;100.00
54882;BME280;40775;51.448;4.742;2023-04-16T09:00:25;102426.94;;;10.43;100.00
54882;BME280;40775;51.448;4.742;2023-04-16T09:02:54;102429.19;;;10.36;100.00
54882;BME280;40775;51.448;4.742;2023-04-16T09:05:21;102427.47;;;10.36;100.00
54882;BME280;40775;51.448;4.742;2023-04-16T09:07:52;102428.13;;;10.50;100.00
54882;BME280;40775;51.448;4.742;2023-04-16T09:10:20;102433.41;;;10.32;100.00
54882;BME280;40775;51.448;4.742;2023-04-16T09:12:47;102429.38;;;10.40;100.00
54882;BME280;40775;51.448;4.742;2023-04-16T09:15:14;102437.63;;;10.29;100.00
54882;BME280;40775;51.448;4.742;2023-04-16T09:17:41;102433.38;;;10.50;100.00
54882;BME280;40775;51.448;4.742;2023-04-16T09:20:09;102430.59;;;10.47;100.00
54882;BME280;40775;51.448;4.742;2023-04-16T09:22:38;102435.16;;;10.51;100.00
54882;BME280;40775;51.448;4.742;2023-04-16T09:25:09;102432.75;;;10.56;100.00
54882;BME280;40775;51.448;4.742;2023-04-16T09:27:37;102441.16;;;10.48;100.00
54882;BME280;40775;51.448;4.742;2023-04-16T09:30:24;102433.09;;;10.44;100.00
54882;BME280;40775;51.448;4.742;2023-04-16T09:33:17;102449.88;;;10.47;100.00
54882;BME280;40775;51.448;4.742;2023-04-16T09:35:51;102449.13;;;10.50;100.00
54882;BME280;40775;51.448;4.742;2023-04-16T09:38:19;102446.56;;;10.51;100.00
54882;BME280;40775;51.448;4.742;2023-04-16T09:40:46;102457.53;;;10.43;100.00
54882;BME280;40775;51.448;4.742;2023-04-16T09:43:16;102455.13;;;10.67;100.00
54882;BME280;40775;51.448;4.742;2023-04-16T09:45:51;102457.16;;;10.72;100.00
54882;BME280;40775;51.448;4.742;2023-04-16T09:48:32;102457.63;;;10.64;100.00
54882;BME280;40775;51.448;4.742;2023-04-16T09:51:00;102459.72;;;10.71;100.00
54882;BME280;40775;51.448;4.742;2023-04-16T09:53:30;102458.66;;;10.67;100.00
54882;BME280;40775;51.448;4.742;2023-04-16T09:56:04;102458.00;;;10.71;100.00
54882;BME280;40775;51.448;4.742;2023-04-16T09:58:35;102457.44;;;10.78;100.00
54882;BME280;40775;51.448;4.742;2023-04-16T10:01:10;102467.44;;;10.68;100.00
54882;BME280;40775;51.448;4.742;2023-04-16T10:03:39;102466.84;;;10.73;100.00
54882;BME280;40775;51.448;4.742;2023-04-16T10:06:18;102466.63;;;10.69;100.00
54882;BME280;40775;51.448;4.742;2023-04-16T10:08:52;102474.72;;;10.73;100.00
54882;BME280;40775;51.448;4.742;2023-04-16T10:11:20;102480.09;;;10.76;100.00
54882;BME280;40775;51.448;4.742;2023-04-16T10:13:47;102478.84;;;10.88;100.00
54882;BME280;40775;51.448;4.742;2023-04-16T10:16:15;102477.06;;;10.87;100.00
54882;BME280;40775;51.448;4.742;2023-04-16T10:18:44;102475.41;;;10.89;100.00
54882;BME280;40775;51.448;4.742;2023-04-16T10:21:12;102478.72;;;10.84;100.00
54882;BME280;40775;51.448;4.742;2023-04-16T10:23:42;102477.75;;;10.82;100.00
54882;BME280;40775;51.448;4.742;2023-04-16T10:26:09;102473.88;;;10.74;100.00
54882;BME280;40775;51.448;4.742;2023-04-16T10:28:36;102482.66;;;10.75;100.00
54882;BME280;40775;51.448;4.742;2023-04-16T10:31:07;102483.63;;;10.77;100.00
54882;BME280;40775;51.448;4.742;2023-04-16T10:33:38;102487.84;;;10.73;100.00
54882;BME280;40775;51.448;4.742;2023-04-16T10:36:11;102478.84;;;10.88;100.00
54882;BME280;40775;51.448;4.742;2023-04-16T10:38:40;102485.91;;;10.89;100.00
54882;BME280;40775;51.448;4.742;2023-04-16T10:41:10;102478.28;;;10.95;100.00
54882;BME280;40775;51.448;4.742;2023-04-16T10:43:43;102484.53;;;10.97;100.00
54882;BME280;40775;51.448;4.742;2023-04-16T10:46:34;102485.97;;;10.90;100.00
54882;BME280;40775;51.448;4.742;2023-04-16T10:49:23;102481.09;;;10.98;100.00
54882;BME280;40775;51.448;4.742;2023-04-16T10:52:00;102491.59;;;10.98;100.00
54882;BME280;40775;51.448;4.742;2023-04-16T10:54:30;102488.06;;;10.78;100.00
54882;BME280;40775;51.448;4.742;2023-04-16T10:56:59;102483.16;;;11.05;100.00
54882;BME280;40775;51.448;4.742;2023-04-16T10:59:32;102484.88;;;11.04;100.00
54882;BME280;40775;51.448;4.742;2023-04-16T11:02:22;102477.66;;;11.20;100.00
54882;BME280;40775;51.448;4.742;2023-04-16T11:04:56;102485.47;;;11.18;100.00
54882;BME280;40775;51.448;4.742;2023-04-16T11:07:33;102481.19;;;11.20;100.00
54882;BME280;40775;51.448;4.742;2023-04-16T11:10:06;102470.88;;;11.25;100.00
54882;BME280;40775;51.448;4.742;2023-04-16T11:12:44;102477.59;;;11.18;100.00
54882;BME280;40775;51.448;4.742;2023-04-16T11:15:14;102479.63;;;11.04;100.00
54882;BME280;40775;51.448;4.742;2023-04-16T11:17:47;102476.63;;;11.16;100.00
54882;BME280;40775;51.448;4.742;2023-04-16T11:22:48;102479.13;;;11.13;100.00
54882;BME280;40775;51.448;4.742;2023-04-16T11:25:25;102486.59;;;11.04;100.00
54882;BME280;40775;51.448;4.742;2023-04-16T11:27:52;102476.75;;;11.19;100.00
54882;BME280;40775;51.448;4.742;2023-04-16T11:30:33;102486.28;;;11.36;100.00
54882;BME280;40775;51.448;4.742;2023-04-16T11:33:08;102482.13;;;11.22;100.00
54882;BME280;40775;51.448;4.742;2023-04-16T11:35:40;102478.72;;;11.23;100.00
54882;BME280;40775;51.448;4.742;2023-04-16T11:38:07;102482.50;;;11.30;100.00
54882;BME280;40775;51.448;4.742;2023-04-16T11:40:34;102478.84;;;11.26;100.00
54882;BME280;40775;51.448;4.742;2023-04-16T11:43:14;102477.00;;;11.44;100.00
54882;BME280;40775;51.448;4.742;2023-04-16T11:46:02;102490.06;;;11.43;100.00
54882;BME280;40775;51.448;4.742;2023-04-16T11:48:53;102489.38;;;11.47;100.00
54882;BME280;40775;51.448;4.742;2023-04-16T11:51:21;102491.94;;;11.25;100.00
54882;BME280;40775;51.448;4.742;2023-04-16T11:53:53;102493.34;;;11.37;100.00
54882;BME280;40775;51.448;4.742;2023-04-16T11:56:29;102491.41;;;11.33;100.00
54882;BME280;40775;51.448;4.742;2023-04-16T11:59:12;102495.72;;;11.31;100.00
54882;BME280;40775;51.448;4.742;2023-04-16T12:01:44;102490.97;;;11.43;100.00
54882;BME280;40775;51.448;4.742;2023-04-16T12:04:14;102497.69;;;11.37;100.00
54882;BME280;40775;51.448;4.742;2023-04-16T12:07:12;102492.06;;;11.49;100.00
54882;BME280;40775;51.448;4.742;2023-04-16T12:09:41;102496.25;;;11.64;100.00
54882;BME280;40775;51.448;4.742;2023-04-16T12:12:28;102498.44;;;11.54;100.00
54882;BME280;40775;51.448;4.742;2023-04-16T12:15:00;102495.03;;;11.56;100.00
54882;BME280;40775;51.448;4.742;2023-04-16T12:17:32;102497.47;;;11.52;100.00
54882;BME280;40775;51.448;4.742;2023-04-16T12:20:11;102502.16;;;11.59;100.00
54882;BME280;40775;51.448;4.742;2023-04-16T12:22:46;102495.81;;;11.54;100.00
54882;BME280;40775;51.448;4.742;2023-04-16T12:25:15;102499.66;;;11.62;100.00
54882;BME280;40775;51.448;4.742;2023-04-16T12:27:51;102498.69;;;11.60;100.00
54882;BME280;40775;51.448;4.742;2023-04-16T12:30:22;102504.25;;;11.46;100.00
54882;BME280;40775;51.448;4.742;2023-04-16T12:33:17;102500.53;;;11.41;100.00
54882;BME280;40775;51.448;4.742;2023-04-16T12:35:44;102502.75;;;11.52;100.00
54882;BME280;40775;51.448;4.742;2023-04-16T12:38:12;102501.56;;;11.45;100.00
54882;BME280;40775;51.448;4.742;2023-04-16T12:40:41;102496.31;;;11.66;100.00
54882;BME280;40775;51.448;4.742;2023-04-16T12:43:11;102506.63;;;11.40;100.00
54882;BME280;40775;51.448;4.742;2023-04-16T12:45:39;102510.84;;;11.37;100.00
54882;BME280;40775;51.448;4.742;2023-04-16T12:48:06;102513.31;;;11.53;100.00
54882;BME280;40775;51.448;4.742;2023-04-16T12:50:33;102511.97;;;11.63;100.00
54882;BME280;40775;51.448;4.742;2023-04-16T12:53:00;102505.75;;;11.80;100.00
54882;BME280;40775;51.448;4.742;2023-04-16T12:55:28;102510.81;;;11.77;100.00